Time;durP1;ratioP1;P1;durP2;ratioP2;P2;SDS_P1;SDS_P2;PMS_P1;PMS_P2;Temp;Humidity;BMP_temperature;BMP_pressure;BME280_temperature;BME280_humidity;BME280_pressure;Samples;Min_cycle;Max_cycle;Signal;HPM_P1;HPM_P2
2020/12/17 00:00:32;;;;;;;17.13;13.57;;;6.30;99.90;;;;;;5076850;28;20204;-37
2020/12/17 00:02:59;;;;;;;14.03;12.70;;;6.20;99.90;;;;;;5059369;28;20415;-37
2020/12/17 00:05:24;;;;;;;15.00;13.50;;;6.20;99.90;;;;;;5076755;28;20698;-36
2020/12/17 00:07:51;;;;;;;13.30;12.10;;;6.20;99.90;;;;;;5077932;28;20418;-38
2020/12/17 00:10:16;;;;;;;14.20;12.70;;;6.20;99.90;;;;;;5078266;28;20506;-36
2020/12/17 00:12:45;;;;;;;14.20;12.80;;;6.10;99.90;;;;;;5077877;28;20577;-38
2020/12/17 00:15:17;;;;;;;12.63;11.43;;;6.10;99.90;;;;;;5060856;28;20460;-37
2020/12/17 00:17:50;;;;;;;13.03;11.73;;;6.10;99.90;;;;;;5077778;28;20437;-37
2020/12/17 00:20:21;;;;;;;12.80;11.50;;;6.10;99.90;;;;;;5077339;28;20888;-37
2020/12/17 00:22:46;;;;;;;12.13;11.03;;;6.20;99.90;;;;;;5077722;28;20424;-37
2020/12/17 00:25:15;;;;;;;14.90;13.23;;;6.20;99.90;;;;;;5077994;28;20493;-36
2020/12/17 00:27:41;;;;;;;13.13;11.83;;;6.20;99.90;;;;;;5059707;28;20510;-35
2020/12/17 00:30:09;;;;;;;13.60;11.60;;;6.20;99.90;;;;;;5077804;28;20423;-37
2020/12/17 00:32:36;;;;;;;11.70;10.60;;;6.20;99.90;;;;;;5076748;28;20427;-37
2020/12/17 00:35:03;;;;;;;12.10;10.90;;;6.20;99.90;;;;;;5077600;28;20759;-38
2020/12/17 00:37:31;;;;;;;12.43;11.23;;;6.20;99.90;;;;;;5076831;28;20423;-37
2020/12/17 00:39:57;;;;;;;12.43;11.13;;;6.20;99.90;;;;;;5077033;28;20573;-37
2020/12/17 00:42:22;;;;;;;13.17;11.90;;;6.20;99.90;;;;;;5075814;28;20854;-37
2020/12/17 00:44:49;;;;;;;11.90;10.80;;;6.20;99.90;;;;;;5076574;28;20703;-42
2020/12/17 00:47:15;;;;;;;11.00;9.90;;;6.20;99.90;;;;;;5076481;28;20181;-40
2020/12/17 00:49:41;;;;;;;11.80;10.70;;;6.20;99.90;;;;;;5074923;28;20581;-40
2020/12/17 00:52:07;;;;;;;11.53;10.33;;;6.50;99.90;;;;;;5075829;28;20427;-38
2020/12/17 00:54:33;;;;;;;12.13;11.03;;;6.70;99.90;;;;;;5075991;28;20510;-39
2020/12/17 00:56:59;;;;;;;11.37;10.33;;;6.90;99.90;;;;;;5076478;28;20470;-36
2020/12/17 00:59:25;;;;;;;10.47;9.37;;;7.00;99.90;;;;;;5076869;28;20905;-40
2020/12/17 01:01:51;;;;;;;11.13;10.00;;;7.00;99.90;;;;;;5076727;28;20173;-39
2020/12/17 01:04:17;;;;;;;10.80;9.80;;;6.90;99.90;;;;;;5077430;28;20846;-38
2020/12/17 01:06:42;;;;;;;9.93;9.13;;;6.80;99.90;;;;;;5074986;28;20439;-39
2020/12/17 01:09:10;;;;;;;12.30;11.13;;;6.70;99.90;;;;;;5077743;28;20411;-37
2020/12/17 01:11:36;;;;;;;11.27;10.17;;;6.60;99.90;;;;;;5076966;28;20306;-38
2020/12/17 01:14:01;;;;;;;10.60;9.70;;;6.50;99.90;;;;;;5081170;28;20423;-38
2020/12/17 01:16:27;;;;;;;10.50;9.50;;;6.40;99.90;;;;;;5081300;28;20415;-37
2020/12/17 01:18:53;;;;;;;10.80;9.50;;;6.30;99.90;;;;;;5080894;28;20655;-37
2020/12/17 01:21:19;;;;;;;11.10;10.13;;;6.20;99.90;;;;;;5081007;28;20411;-38
2020/12/17 01:23:45;;;;;;;10.73;9.73;;;6.20;99.90;;;;;;5080522;28;20181;-38
2020/12/17 01:26:11;;;;;;;10.40;9.40;;;6.10;99.90;;;;;;5080734;28;20902;-37
2020/12/17 01:28:37;;;;;;;11.60;10.50;;;6.00;99.90;;;;;;5080653;28;20196;-37
2020/12/17 01:31:11;;;;;;;12.27;10.97;;;6.00;99.90;;;;;;5081028;28;20452;-39
2020/12/17 01:33:37;;;;;;;11.43;9.83;;;5.90;99.90;;;;;;5080965;28;20431;-39
2020/12/17 01:36:07;;;;;;;11.30;10.30;;;5.90;99.90;;;;;;5080957;28;20686;-37
2020/12/17 01:38:37;;;;;;;11.40;10.20;;;5.80;99.90;;;;;;5080991;28;20519;-38
2020/12/17 01:41:04;;;;;;;10.43;9.43;;;5.80;99.90;;;;;;5080719;28;20603;-38
2020/12/17 01:43:37;;;;;;;10.50;9.40;;;5.80;99.90;;;;;;5080969;28;20568;-37
2020/12/17 01:46:03;;;;;;;10.90;9.80;;;5.80;99.90;;;;;;5080802;28;20426;-37
2020/12/17 01:48:30;;;;;;;11.63;10.30;;;5.70;99.90;;;;;;5080286;28;20516;-37
2020/12/17 01:50:55;;;;;;;11.37;10.27;;;5.70;99.90;;;;;;5080620;28;20746;-37
2020/12/17 01:53:21;;;;;;;11.57;10.47;;;5.70;99.90;;;;;;5062548;28;20422;-37
2020/12/17 01:55:47;;;;;;;11.93;10.73;;;5.70;99.90;;;;;;5080233;28;20834;-37
2020/12/17 01:58:14;;;;;;;10.73;9.73;;;5.70;99.90;;;;;;5080224;28;20184;-38
2020/12/17 02:00:39;;;;;;;14.00;11.23;;;5.70;99.90;;;;;;5062611;28;20220;-37
2020/12/17 02:03:06;;;;;;;13.43;12.00;;;5.70;99.90;;;;;;5062541;28;20777;-36
2020/12/17 02:05:31;;;;;;;12.63;11.33;;;5.70;99.90;;;;;;5080550;28;20173;-37
2020/12/17 02:07:59;;;;;;;12.63;11.40;;;5.60;99.90;;;;;;5079940;28;20700;-39
2020/12/17 02:10:28;;;;;;;12.40;11.20;;;5.60;99.90;;;;;;5080024;28;20804;-37
2020/12/17 02:12:54;;;;;;;11.70;10.23;;;5.60;99.90;;;;;;5080063;28;20586;-36
2020/12/17 02:15:21;;;;;;;13.03;11.60;;;5.60;99.90;;;;;;5080110;28;20449;-37
2020/12/17 02:17:48;;;;;;;12.10;10.80;;;5.50;99.90;;;;;;5081218;28;20826;-39
2020/12/17 02:20:14;;;;;;;13.40;12.00;;;5.50;99.90;;;;;;5080758;28;20463;-37
2020/12/17 02:22:40;;;;;;;11.97;10.87;;;5.40;99.90;;;;;;5079565;28;20492;-38
2020/12/17 02:25:08;;;;;;;11.43;10.33;;;5.40;99.90;;;;;;5080767;28;20412;-37
2020/12/17 02:27:34;;;;;;;11.07;9.97;;;5.40;99.90;;;;;;5079809;28;20452;-37
2020/12/17 02:30:00;;;;;;;15.73;12.10;;;5.30;99.90;;;;;;5080007;28;20411;-36
2020/12/17 02:32:29;;;;;;;12.13;10.70;;;5.30;99.90;;;;;;5080507;28;20430;-37
2020/12/17 02:34:54;;;;;;;14.10;12.70;;;5.30;99.90;;;;;;5062573;28;20438;-38
2020/12/17 02:37:21;;;;;;;12.47;11.17;;;5.30;99.90;;;;;;5079777;28;20412;-37
2020/12/17 02:39:46;;;;;;;14.57;11.50;;;5.30;99.90;;;;;;5079881;28;20209;-37
2020/12/17 02:42:12;;;;;;;12.27;10.97;;;5.30;99.90;;;;;;5079048;28;20841;-37
2020/12/17 02:44:38;;;;;;;14.77;11.50;;;5.30;99.90;;;;;;5079562;28;20181;-36
2020/12/17 02:47:04;;;;;;;12.13;10.93;;;5.30;99.90;;;;;;5079573;28;20177;-37
2020/12/17 02:49:29;;;;;;;13.20;11.87;;;5.20;99.90;;;;;;5062155;28;20635;-37
2020/12/17 02:51:55;;;;;;;11.83;10.73;;;5.20;99.90;;;;;;5061886;28;20443;-37
2020/12/17 02:54:21;;;;;;;13.40;11.87;;;5.20;99.90;;;;;;5078347;28;20185;-37
2020/12/17 02:56:47;;;;;;;12.53;11.23;;;5.20;99.90;;;;;;5078658;28;20177;-37
2020/12/17 02:59:13;;;;;;;13.93;12.53;;;5.10;99.90;;;;;;5061927;28;20588;-37
2020/12/17 03:01:39;;;;;;;13.70;12.30;;;5.10;99.90;;;;;;5079721;28;20695;-38
2020/12/17 03:04:04;;;;;;;13.90;12.50;;;5.10;99.90;;;;;;5078792;28;20431;-37
2020/12/17 03:06:30;;;;;;;14.53;12.57;;;5.10;99.90;;;;;;5079195;28;20242;-37
2020/12/17 03:08:56;;;;;;;16.93;14.50;;;5.10;99.90;;;;;;5079580;28;20230;-37
2020/12/17 03:11:22;;;;;;;15.83;14.23;;;5.10;99.90;;;;;;5079240;28;20464;-38
2020/12/17 03:13:47;;;;;;;16.70;14.23;;;5.20;99.90;;;;;;5078990;28;20173;-37
2020/12/17 03:16:14;;;;;;;19.53;15.40;;;5.20;99.90;;;;;;5079405;28;20181;-37
2020/12/17 03:18:39;;;;;;;17.07;15.27;;;5.20;99.90;;;;;;5078629;28;20193;-37
2020/12/17 03:21:05;;;;;;;17.70;15.27;;;5.30;99.90;;;;;;5078424;28;20886;-37
2020/12/17 03:23:30;;;;;;;15.87;14.17;;;5.30;99.90;;;;;;5077953;28;20181;-37
2020/12/17 03:25:57;;;;;;;20.13;17.40;;;5.30;99.90;;;;;;5078748;28;20173;-37
2020/12/17 03:28:22;;;;;;;19.43;16.50;;;5.30;99.90;;;;;;5079113;28;20257;-37
2020/12/17 03:30:48;;;;;;;18.03;15.93;;;5.20;99.90;;;;;;5078961;28;20527;-37
2020/12/17 03:33:13;;;;;;;16.97;15.17;;;5.30;99.90;;;;;;5078585;28;20180;-38
2020/12/17 03:35:39;;;;;;;17.13;15.33;;;5.30;99.90;;;;;;5078198;28;20541;-37
2020/12/17 03:38:05;;;;;;;16.43;14.73;;;5.20;99.90;;;;;;5078728;28;20184;-38
2020/12/17 03:40:31;;;;;;;21.90;17.27;;;5.20;99.90;;;;;;5078683;28;20479;-37
2020/12/17 03:42:56;;;;;;;18.27;16.40;;;5.30;99.90;;;;;;5077991;28;20165;-36
2020/12/17 03:45:23;;;;;;;17.97;15.90;;;5.30;99.90;;;;;;5061360;28;20549;-38
2020/12/17 03:47:49;;;;;;;21.27;18.40;;;5.20;99.90;;;;;;5060571;28;20201;-38
2020/12/17 03:50:15;;;;;;;19.23;17.20;;;5.10;99.90;;;;;;5078349;28;20450;-37
2020/12/17 03:52:40;;;;;;;19.80;16.77;;;5.20;99.90;;;;;;5078054;28;20419;-38
2020/12/17 03:55:07;;;;;;;19.20;16.67;;;5.20;99.90;;;;;;5060416;28;20188;-37
2020/12/17 03:57:33;;;;;;;22.20;18.07;;;5.20;99.90;;;;;;5078256;28;20272;-36
2020/12/17 03:59:59;;;;;;;20.67;17.50;;;5.20;99.90;;;;;;5077753;28;20573;-38
2020/12/17 04:02:24;;;;;;;19.20;17.03;;;5.20;99.90;;;;;;5077804;28;20419;-36
2020/12/17 04:04:51;;;;;;;20.73;18.40;;;5.20;99.90;;;;;;5077678;28;20419;-37
2020/12/17 04:07:17;;;;;;;19.33;15.80;;;5.20;99.90;;;;;;5077539;28;20193;-38
2020/12/17 04:09:43;;;;;;;21.87;18.13;;;5.20;99.90;;;;;;5078143;28;20858;-37
2020/12/17 04:12:09;;;;;;;19.80;17.00;;;5.20;99.90;;;;;;5077671;28;20289;-38
2020/12/17 04:14:35;;;;;;;22.10;18.63;;;5.20;99.90;;;;;;5077820;28;20603;-37
2020/12/17 04:17:01;;;;;;;21.57;18.13;;;5.30;99.90;;;;;;5077825;28;20423;-37
2020/12/17 04:19:26;;;;;;;21.67;18.70;;;5.30;99.90;;;;;;5077696;28;20278;-37
2020/12/17 04:21:52;;;;;;;18.80;16.33;;;5.40;99.90;;;;;;5077899;28;20173;-37
2020/12/17 04:24:18;;;;;;;22.00;16.63;;;5.30;99.90;;;;;;5078081;28;20177;-37
2020/12/17 04:26:53;;;;;;;21.17;17.17;;;5.30;99.90;;;;;;5077707;28;20502;-37
2020/12/17 04:29:19;;;;;;;19.93;17.37;;;5.30;99.90;;;;;;5078020;28;20184;-37
2020/12/17 04:31:45;;;;;;;20.43;16.50;;;5.30;99.90;;;;;;5077502;28;20748;-38
2020/12/17 04:34:11;;;;;;;20.30;16.73;;;5.30;99.90;;;;;;5077592;28;20442;-37
2020/12/17 04:36:38;;;;;;;17.57;14.37;;;5.20;99.90;;;;;;5077737;28;20419;-37
2020/12/17 04:39:04;;;;;;;16.60;14.93;;;5.20;99.90;;;;;;5077575;28;20211;-38
2020/12/17 04:41:31;;;;;;;19.00;16.37;;;5.20;99.90;;;;;;5076335;28;20715;-37
2020/12/17 04:43:57;;;;;;;18.43;15.30;;;5.20;99.90;;;;;;5077700;28;20838;-37
2020/12/17 04:46:25;;;;;;;16.60;14.60;;;5.20;99.90;;;;;;5075712;28;20428;-37
2020/12/17 04:48:52;;;;;;;18.03;16.10;;;5.10;99.90;;;;;;5077702;28;20449;-38
2020/12/17 04:51:19;;;;;;;18.37;15.90;;;5.10;99.90;;;;;;5078773;28;20423;-37
2020/12/17 04:53:47;;;;;;;16.27;14.67;;;5.00;99.90;;;;;;5077096;28;20438;-38
2020/12/17 04:56:15;;;;;;;17.70;15.27;;;5.00;99.90;;;;;;5077144;28;20419;-37
2020/12/17 04:58:45;;;;;;;17.20;14.83;;;5.00;99.90;;;;;;5077018;28;20477;-38
2020/12/17 05:01:14;;;;;;;17.53;14.33;;;5.00;99.90;;;;;;5077433;28;20523;-39
2020/12/17 05:03:40;;;;;;;18.07;13.97;;;5.10;99.90;;;;;;5077324;28;20423;-38
2020/12/17 05:06:07;;;;;;;16.23;14.10;;;5.10;99.90;;;;;;5059265;28;20415;-37
2020/12/17 05:08:32;;;;;;;14.57;13.07;;;5.20;99.90;;;;;;5077053;28;20418;-37
2020/12/17 05:10:58;;;;;;;15.10;13.07;;;5.20;99.90;;;;;;5076316;28;20430;-39
2020/12/17 05:13:24;;;;;;;18.80;13.37;;;5.10;99.90;;;;;;5077393;28;20205;-37
2020/12/17 05:15:49;;;;;;;17.40;15.57;;;5.10;99.90;;;;;;5077336;28;20181;-39
2020/12/17 05:18:15;;;;;;;15.93;13.70;;;5.10;99.90;;;;;;5059368;28;20199;-40
2020/12/17 05:20:43;;;;;;;16.60;14.97;;;5.00;99.90;;;;;;5059193;28;20215;-37
2020/12/17 05:23:09;;;;;;;15.67;13.33;;;5.00;99.90;;;;;;5077612;28;20177;-37
2020/12/17 05:25:37;;;;;;;17.70;15.90;;;5.00;99.90;;;;;;5058968;28;20423;-38
2020/12/17 05:28:03;;;;;;;15.97;14.10;;;4.90;99.90;;;;;;5074522;28;20216;-38
2020/12/17 05:30:33;;;;;;;13.93;12.40;;;4.90;99.90;;;;;;5075438;28;20427;-36
2020/12/17 05:33:00;;;;;;;14.60;13.10;;;4.90;99.90;;;;;;5056417;28;20446;-37
2020/12/17 05:35:36;;;;;;;15.33;13.40;;;4.90;99.90;;;;;;5073915;28;20465;-37
2020/12/17 05:38:04;;;;;;;14.30;12.77;;;4.80;99.90;;;;;;5076712;28;20447;-38
2020/12/17 05:40:41;;;;;;;15.27;13.67;;;4.80;99.90;;;;;;5074807;28;20480;-38
2020/12/17 05:43:07;;;;;;;13.17;11.43;;;4.80;99.90;;;;;;5076934;28;20403;-36
2020/12/17 05:45:33;;;;;;;16.60;12.83;;;4.80;99.90;;;;;;5075619;28;20450;-37
2020/12/17 05:48:12;;;;;;;12.30;10.83;;;4.70;99.90;;;;;;5074807;28;20503;-38
2020/12/17 05:50:57;;;;;;;14.60;12.47;;;4.70;99.90;;;;;;5073600;28;20434;-37
2020/12/17 05:53:27;;;;;;;13.13;11.73;;;4.60;99.90;;;;;;5064321;28;20713;-36
2020/12/17 05:56:04;;;;;;;13.53;12.13;;;4.60;99.90;;;;;;5070348;28;20767;-38
2020/12/17 05:58:44;;;;;;;13.63;12.13;;;4.50;99.90;;;;;;5070351;28;20414;-38
2020/12/17 06:01:12;;;;;;;11.90;10.63;;;4.50;99.90;;;;;;5071934;28;21172;-38
2020/12/17 06:03:40;;;;;;;11.90;10.60;;;4.50;99.90;;;;;;5076840;28;21007;-37
2020/12/17 06:06:07;;;;;;;11.40;10.10;;;4.40;99.90;;;;;;5078780;28;20404;-39
2020/12/17 06:08:38;;;;;;;11.80;10.40;;;4.40;99.90;;;;;;5078825;28;20440;-37
2020/12/17 06:11:09;;;;;;;12.23;11.00;;;4.40;99.90;;;;;;5076836;28;20416;-37
2020/12/17 06:13:39;;;;;;;12.90;11.53;;;4.40;99.90;;;;;;5079486;28;20684;-39
2020/12/17 06:16:06;;;;;;;12.80;10.17;;;4.30;99.90;;;;;;5059965;28;20420;-37
2020/12/17 06:18:56;;;;;;;10.87;9.83;;;4.30;99.90;;;;;;5060155;28;20809;-37
2020/12/17 06:21:26;;;;;;;10.67;9.53;;;4.30;99.90;;;;;;5045630;28;20472;-37
2020/12/17 06:23:59;;;;;;;10.87;9.77;;;4.30;99.90;;;;;;5060663;28;20424;-37
2020/12/17 06:26:26;;;;;;;13.00;10.23;;;4.30;99.90;;;;;;5060046;28;20819;-39
2020/12/17 06:28:53;;;;;;;10.17;8.90;;;4.30;99.90;;;;;;5059914;28;20424;-37
2020/12/17 06:31:26;;;;;;;9.47;8.47;;;4.20;99.90;;;;;;5059906;28;20408;-37
2020/12/17 06:33:56;;;;;;;8.57;7.77;;;4.30;99.90;;;;;;5043669;28;20858;-36
2020/12/17 06:36:28;;;;;;;9.47;7.47;;;4.30;99.90;;;;;;5059561;28;20420;-38
2020/12/17 06:38:54;;;;;;;8.47;7.50;;;4.30;99.90;;;;;;5059346;28;20427;-37
2020/12/17 06:41:23;;;;;;;8.23;7.47;;;4.30;99.90;;;;;;5042381;28;20468;-37
2020/12/17 06:43:48;;;;;;;7.53;6.83;;;4.30;99.90;;;;;;5041777;28;20808;-40
2020/12/17 06:46:31;;;;;;;7.80;7.00;;;4.30;99.90;;;;;;5059631;28;20507;-36
2020/12/17 06:48:58;;;;;;;8.80;7.77;;;4.40;99.90;;;;;;5060301;28;20177;-37
2020/12/17 06:51:37;;;;;;;6.70;6.03;;;4.40;99.90;;;;;;5060224;28;20416;-37
2020/12/17 06:54:08;;;;;;;6.87;6.17;;;4.40;99.90;;;;;;5059344;28;20443;-38
2020/12/17 06:56:37;;;;;;;6.73;6.13;;;4.40;99.90;;;;;;5059528;28;20416;-37
2020/12/17 06:59:33;;;;;;;7.97;7.27;;;4.40;99.90;;;;;;5041650;28;20431;-37
2020/12/17 07:01:59;;;;;;;7.47;6.67;;;4.40;99.90;;;;;;5038519;28;20820;-37
2020/12/17 07:04:42;;;;;;;8.10;7.30;;;4.30;99.90;;;;;;5059255;28;20854;-38
2020/12/17 07:07:16;;;;;;;7.20;6.50;;;4.30;99.90;;;;;;5058843;28;20527;-37
2020/12/17 07:09:46;;;;;;;6.20;5.63;;;4.30;99.90;;;;;;5057162;28;20423;-37
2020/12/17 07:12:33;;;;;;;6.93;5.90;;;4.40;99.90;;;;;;5058514;28;20468;-37
2020/12/17 07:14:59;;;;;;;6.00;5.40;;;4.40;99.90;;;;;;5057637;28;20432;-37
2020/12/17 07:17:26;;;;;;;7.10;5.97;;;4.40;99.90;;;;;;5058040;28;20673;-37
2020/12/17 07:19:52;;;;;;;7.10;5.97;;;4.50;99.90;;;;;;5057979;28;20484;-37
2020/12/17 07:22:19;;;;;;;6.90;6.20;;;4.60;99.90;;;;;;5057695;28;20451;-39
2020/12/17 07:24:52;;;;;;;7.27;5.87;;;4.50;99.90;;;;;;5057760;28;20917;-37
2020/12/17 07:27:27;;;;;;;6.30;5.70;;;4.50;99.90;;;;;;5058400;28;20416;-36
2020/12/17 07:30:02;;;;;;;6.63;5.97;;;4.50;99.90;;;;;;5057622;28;20450;-37
2020/12/17 07:32:47;;;;;;;7.10;6.40;;;4.60;99.90;;;;;;5058627;28;20803;-37
2020/12/17 07:35:13;;;;;;;6.93;6.27;;;4.50;99.90;;;;;;5058280;28;20762;-36
2020/12/17 07:38:00;;;;;;;6.67;6.07;;;4.60;99.90;;;;;;5058909;28;20420;-37
2020/12/17 07:40:29;;;;;;;6.73;6.00;;;4.60;99.90;;;;;;5059329;28;20483;-37
2020/12/17 07:43:05;;;;;;;7.13;6.43;;;4.60;99.90;;;;;;5058174;28;20768;-38
2020/12/17 07:45:52;;;;;;;6.73;6.07;;;4.70;99.90;;;;;;5058320;28;20434;-38
2020/12/17 07:48:43;;;;;;;6.27;5.67;;;4.70;99.90;;;;;;5058928;28;20420;-37
2020/12/17 07:51:14;;;;;;;6.30;5.40;;;4.80;99.90;;;;;;5068021;28;20850;-37
2020/12/17 07:53:47;;;;;;;8.37;7.57;;;4.80;99.90;;;;;;5078032;28;20447;-38
2020/12/17 07:56:13;;;;;;;7.73;6.93;;;4.80;99.90;;;;;;5059362;28;20435;-38
2020/12/17 07:58:40;;;;;;;6.27;5.67;;;4.80;99.90;;;;;;5072515;28;20615;-37
2020/12/17 08:01:08;;;;;;;5.90;5.20;;;4.80;99.90;;;;;;5073960;28;20620;-38
2020/12/17 08:03:49;;;;;;;7.33;5.73;;;4.90;99.90;;;;;;5075939;28;20511;-38
2020/12/17 08:06:17;;;;;;;6.20;5.60;;;4.80;99.90;;;;;;5072132;28;20439;-38
2020/12/17 08:08:43;;;;;;;6.73;5.70;;;4.90;99.90;;;;;;5077063;28;20427;-38
2020/12/17 08:11:09;;;;;;;8.10;6.33;;;4.90;99.90;;;;;;5075170;28;20435;-36
2020/12/17 08:13:37;;;;;;;6.50;5.63;;;5.00;99.90;;;;;;5071549;28;20195;-38
2020/12/17 08:16:04;;;;;;;6.60;6.00;;;5.00;99.90;;;;;;5071001;28;20524;-37
2020/12/17 08:18:33;;;;;;;6.17;5.57;;;5.00;99.90;;;;;;5075479;28;21030;-37
2020/12/17 08:21:12;;;;;;;6.60;5.90;;;5.10;99.90;;;;;;5076379;28;20485;-37
2020/12/17 08:23:44;;;;;;;7.20;6.10;;;5.10;99.90;;;;;;5074409;28;20710;-39
2020/12/17 08:26:13;;;;;;;6.53;5.73;;;5.20;99.90;;;;;;5076914;28;20418;-38
2020/12/17 08:28:41;;;;;;;7.00;6.30;;;5.30;99.90;;;;;;5074539;28;20447;-37
2020/12/17 08:31:13;;;;;;;6.70;6.00;;;5.40;99.90;;;;;;5075117;28;20770;-38
2020/12/17 08:33:50;;;;;;;6.50;5.63;;;5.40;99.90;;;;;;5056501;28;20455;-37
2020/12/17 08:36:21;;;;;;;7.37;5.53;;;5.50;99.90;;;;;;5076739;28;20423;-39
2020/12/17 08:38:54;;;;;;;7.20;6.50;;;5.60;99.90;;;;;;5077467;28;20822;-38
2020/12/17 08:41:25;;;;;;;9.13;6.30;;;5.70;99.90;;;;;;5078698;28;20563;-37
2020/12/17 08:43:53;;;;;;;6.63;5.93;;;5.80;99.90;;;;;;5060122;28;20427;-38
2020/12/17 08:46:19;;;;;;;8.40;6.30;;;5.80;99.90;;;;;;5060345;28;20418;-41
2020/12/17 08:48:45;;;;;;;7.87;6.50;;;5.80;99.90;;;;;;5076641;28;20860;-39
2020/12/17 08:51:17;;;;;;;7.20;6.50;;;5.80;99.90;;;;;;5059466;28;20415;-40
2020/12/17 08:53:45;;;;;;;9.60;5.67;;;5.80;99.90;;;;;;5077293;28;21044;-40
2020/12/17 08:56:22;;;;;;;6.73;5.77;;;5.90;99.90;;;;;;5042180;28;20449;-39
2020/12/17 08:58:51;;;;;;;6.10;5.53;;;6.00;99.80;;;;;;5075554;28;20419;-39
2020/12/17 09:01:22;;;;;;;6.40;5.77;;;6.20;99.80;;;;;;5076240;28;20471;-39
2020/12/17 09:03:48;;;;;;;6.43;5.83;;;6.30;99.40;;;;;;5059106;28;20764;-38
2020/12/17 09:06:14;;;;;;;7.67;5.90;;;6.40;99.60;;;;;;5075841;28;20769;-38
2020/12/17 09:08:40;;;;;;;7.67;6.20;;;6.60;99.10;;;;;;5076057;28;20481;-38
2020/12/17 09:11:36;;;;;;;7.30;5.90;;;6.60;98.40;;;;;;5076447;28;20538;-40
2020/12/17 09:14:07;;;;;;;6.53;5.93;;;6.60;98.60;;;;;;5058293;28;20455;-39
2020/12/17 09:16:34;;;;;;;7.77;5.80;;;6.70;98.90;;;;;;5075460;28;20529;-39
2020/12/17 09:19:06;;;;;;;7.63;6.10;;;6.90;98.90;;;;;;5076185;28;20493;-38
2020/12/17 09:21:33;;;;;;;5.53;4.77;;;6.90;98.10;;;;;;5060247;28;20427;-39
2020/12/17 09:24:00;;;;;;;6.87;6.17;;;6.90;98.20;;;;;;5078089;28;20400;-38
2020/12/17 09:26:26;;;;;;;6.37;5.73;;;7.10;98.30;;;;;;5076961;28;20515;-38
2020/12/17 09:28:55;;;;;;;7.93;5.50;;;7.30;98.20;;;;;;5077208;28;20465;-39
2020/12/17 09:31:26;;;;;;;7.37;6.67;;;7.50;98.10;;;;;;5059603;28;20826;-39
2020/12/17 09:34:11;;;;;;;8.30;6.60;;;8.10;97.30;;;;;;5077515;28;20414;-39
2020/12/17 09:36:39;;;;;;;8.07;5.70;;;9.20;95.60;;;;;;5080701;28;20563;-39
2020/12/17 09:39:07;;;;;;;6.10;5.50;;;10.10;92.80;;;;;;5063051;28;20407;-39
2020/12/17 09:41:33;;;;;;;8.97;6.60;;;10.30;91.60;;;;;;5081312;28;20438;-37
2020/12/17 09:44:00;;;;;;;6.83;6.03;;;11.30;91.30;;;;;;5063111;28;20592;-38
2020/12/17 09:46:25;;;;;;;5.90;5.30;;;11.70;88.30;;;;;;5080293;28;20434;-38
2020/12/17 09:48:51;;;;;;;6.60;4.93;;;12.60;89.00;;;;;;5082188;28;20403;-39
2020/12/17 09:51:21;;;;;;;6.23;5.50;;;13.00;85.60;;;;;;5079962;28;20284;-44
2020/12/17 09:53:48;;;;;;;6.40;5.53;;;12.60;84.20;;;;;;5080626;28;20181;-37
2020/12/17 09:56:17;;;;;;;10.73;6.80;;;12.90;85.10;;;;;;5062004;28;20442;-38
2020/12/17 09:58:46;;;;;;;7.60;6.30;;;12.60;83.50;;;;;;5062558;28;20488;-38
2020/12/17 10:01:14;;;;;;;7.17;5.80;;;11.50;86.30;;;;;;5079565;28;20527;-37
2020/12/17 10:03:39;;;;;;;6.77;6.10;;;10.90;88.90;;;;;;5078915;28;20488;-37
2020/12/17 10:06:06;;;;;;;7.03;6.00;;;10.50;90.20;;;;;;5078901;28;20694;-37
2020/12/17 10:08:32;;;;;;;6.53;5.93;;;10.10;90.80;;;;;;5078148;28;20839;-37
2020/12/17 10:10:59;;;;;;;5.30;4.80;;;10.10;91.60;;;;;;5077761;28;20470;-39
2020/12/17 10:13:25;;;;;;;7.30;5.90;;;9.90;92.30;;;;;;5076867;28;20435;-37
2020/12/17 10:15:50;;;;;;;6.93;6.33;;;10.00;92.00;;;;;;5078680;28;20803;-38
2020/12/17 10:18:16;;;;;;;6.57;5.87;;;10.10;92.10;;;;;;5078076;28;20181;-36
2020/12/17 10:20:42;;;;;;;6.90;5.47;;;9.80;92.40;;;;;;5077785;28;20245;-37
2020/12/17 10:23:08;;;;;;;6.47;5.87;;;9.60;93.20;;;;;;5060361;28;20238;-37
2020/12/17 10:25:34;;;;;;;7.20;6.53;;;9.70;93.30;;;;;;5077797;28;20414;-37
2020/12/17 10:28:00;;;;;;;7.17;6.43;;;10.20;93.20;;;;;;5078461;28;20440;-37
2020/12/17 10:30:26;;;;;;;6.00;5.40;;;11.30;93.00;;;;;;5078309;28;20248;-38
2020/12/17 10:32:52;;;;;;;6.90;6.20;;;12.40;90.50;;;;;;5079951;28;20184;-38
2020/12/17 10:35:17;;;;;;;6.10;5.57;;;13.30;86.50;;;;;;5078588;28;20480;-37
2020/12/17 10:37:43;;;;;;;6.63;5.87;;;13.60;83.60;;;;;;5079087;28;20181;-38
2020/12/17 10:40:11;;;;;;;6.20;5.60;;;13.50;83.90;;;;;;5078690;28;20204;-38
2020/12/17 10:42:43;;;;;;;6.73;5.20;;;13.90;83.50;;;;;;5080367;28;20173;-38
2020/12/17 10:45:10;;;;;;;6.00;5.40;;;13.20;82.40;;;;;;5080047;28;20429;-38
2020/12/17 10:47:37;;;;;;;5.67;5.10;;;13.30;84.80;;;;;;5078658;28;20765;-38
2020/12/17 10:50:07;;;;;;;6.37;5.73;;;13.60;83.50;;;;;;5078984;28;20419;-38
2020/12/17 10:52:34;;;;;;;5.83;5.23;;;14.30;80.90;;;;;;5077975;28;20851;-38
2020/12/17 10:55:00;;;;;;;5.17;4.67;;;15.10;79.60;;;;;;5079147;28;20416;-41
2020/12/17 10:57:26;;;;;;;7.53;5.53;;;15.30;78.10;;;;;;5061261;28;20477;-37
2020/12/17 10:59:51;;;;;;;10.93;5.80;;;16.10;77.50;;;;;;5079020;28;20193;-37
2020/12/17 11:02:17;;;;;;;5.70;4.83;;;16.00;73.80;;;;;;5079316;28;20442;-39
2020/12/17 11:04:43;;;;;;;5.60;5.10;;;15.90;73.70;;;;;;5078721;28;20173;-38
2020/12/17 11:07:09;;;;;;;6.13;5.17;;;13.40;76.80;;;;;;5078127;28;20177;-37
2020/12/17 11:09:35;;;;;;;6.30;5.70;;;13.00;81.40;;;;;;5079121;28;20415;-38
2020/12/17 11:12:00;;;;;;;7.10;6.40;;;12.20;84.20;;;;;;5077341;28;20485;-38
2020/12/17 11:14:26;;;;;;;6.70;6.03;;;11.40;87.20;;;;;;5059391;28;20173;-38
2020/12/17 11:16:52;;;;;;;7.53;6.33;;;11.00;90.00;;;;;;5072218;28;20263;-38
2020/12/17 11:19:19;;;;;;;6.27;5.67;;;10.90;90.60;;;;;;5062066;28;20190;-39
2020/12/17 11:21:45;;;;;;;5.90;5.30;;;10.80;90.70;;;;;;5071102;28;20435;-37
2020/12/17 11:24:11;;;;;;;6.53;5.83;;;10.80;90.90;;;;;;5061685;28;20409;-38
2020/12/17 11:26:46;;;;;;;6.43;5.83;;;10.70;91.40;;;;;;5075103;28;20411;-37
2020/12/17 11:29:13;;;;;;;7.70;6.40;;;10.70;91.70;;;;;;5072170;28;20995;-39
2020/12/17 11:31:39;;;;;;;7.53;6.10;;;10.70;92.00;;;;;;5064053;28;20435;-38
2020/12/17 11:34:05;;;;;;;6.43;5.73;;;10.70;92.10;;;;;;5067303;28;20411;-38
2020/12/17 11:36:31;;;;;;;5.37;4.87;;;10.80;92.00;;;;;;5077696;28;20552;-37
2020/12/17 11:38:57;;;;;;;5.80;5.20;;;10.80;91.90;;;;;;5077550;28;20440;-37
2020/12/17 11:41:23;;;;;;;7.43;6.07;;;10.90;92.20;;;;;;5077593;28;20501;-36
2020/12/17 11:43:48;;;;;;;6.97;5.40;;;10.90;91.80;;;;;;5078272;28;20967;-37
2020/12/17 11:46:18;;;;;;;5.93;5.20;;;10.90;91.70;;;;;;5078087;28;20199;-38
2020/12/17 11:48:44;;;;;;;6.47;5.53;;;11.00;92.00;;;;;;5077906;28;20181;-38
2020/12/17 11:51:10;;;;;;;5.30;4.80;;;11.10;92.00;;;;;;5077821;28;20422;-38
2020/12/17 11:53:35;;;;;;;8.63;4.80;;;10.90;92.10;;;;;;5060808;28;20471;-37
2020/12/17 11:56:01;;;;;;;7.10;4.97;;;11.00;92.40;;;;;;5076985;28;20185;-38
2020/12/17 11:58:27;;;;;;;5.80;5.07;;;10.90;92.70;;;;;;5076209;28;20437;-36
2020/12/17 12:00:53;;;;;;;5.50;5.00;;;10.70;93.00;;;;;;5097087;28;20470;-38
2020/12/17 12:03:19;;;;;;;5.70;4.80;;;10.60;93.30;;;;;;5096858;28;20494;-37
2020/12/17 12:05:45;;;;;;;5.80;5.20;;;10.70;93.50;;;;;;5078605;28;20172;-40
2020/12/17 12:08:11;;;;;;;7.53;5.90;;;10.60;93.60;;;;;;5097527;28;20180;-37
2020/12/17 12:10:36;;;;;;;7.33;4.87;;;10.60;93.90;;;;;;5096995;28;20414;-38
2020/12/17 12:13:02;;;;;;;4.80;4.30;;;10.80;95.50;;;;;;5079545;28;20489;-37
2020/12/17 12:15:28;;;;;;;5.10;4.30;;;11.10;94.60;;;;;;5097894;28;20180;-38
2020/12/17 12:17:54;;;;;;;6.87;5.10;;;11.30;94.90;;;;;;5098433;28;20191;-38
2020/12/17 12:20:20;;;;;;;5.10;4.70;;;11.40;93.50;;;;;;5097437;28;20936;-39
2020/12/17 12:22:46;;;;;;;6.90;5.60;;;11.40;93.10;;;;;;5096834;28;20215;-42
2020/12/17 12:25:12;;;;;;;5.83;5.30;;;11.30;92.90;;;;;;5096531;28;20184;-38
2020/12/17 12:27:37;;;;;;;5.90;5.30;;;11.30;93.20;;;;;;5095707;28;20753;-40
2020/12/17 12:30:04;;;;;;;6.77;6.17;;;11.50;93.70;;;;;;5096443;28;20422;-40
2020/12/17 12:32:29;;;;;;;8.07;5.70;;;11.50;92.80;;;;;;5097439;28;20176;-39
2020/12/17 12:34:55;;;;;;;4.67;4.20;;;11.60;92.80;;;;;;5097462;28;20418;-40
2020/12/17 12:37:21;;;;;;;4.97;4.53;;;11.60;93.20;;;;;;5080113;28;20176;-43
2020/12/17 12:39:47;;;;;;;6.17;5.57;;;11.80;93.20;;;;;;5098185;28;20465;-38
2020/12/17 12:42:12;;;;;;;6.53;5.93;;;11.60;92.60;;;;;;5098859;28;20176;-40
2020/12/17 12:44:38;;;;;;;5.60;5.00;;;11.40;92.40;;;;;;5097035;28;20179;-39
2020/12/17 12:47:04;;;;;;;5.03;4.53;;;11.40;93.20;;;;;;5097869;28;20181;-37
2020/12/17 12:49:30;;;;;;;5.90;5.30;;;11.60;93.70;;;;;;5096674;28;20510;-37